createdAt,value
2023-05-19T00:05:30.806Z,13.56
2023-05-19T00:20:37.991Z,13.32
2023-05-19T00:35:43.544Z,13.24
2023-05-19T00:50:49.429Z,12.93
2023-05-19T01:05:55.112Z,12.82
2023-05-19T01:21:08.344Z,12.62
2023-05-19T01:36:15.410Z,12.41
2023-05-19T01:51:21.036Z,12.32
2023-05-19T02:06:35.916Z,12.23
2023-05-19T02:21:41.508Z,12.17
2023-05-19T02:36:50.010Z,12.14
2023-05-19T02:51:55.641Z,11.94
2023-05-19T03:07:02.452Z,11.82
2023-05-19T03:22:08.309Z,11.70
2023-05-19T03:37:14.094Z,11.46
2023-05-19T03:52:19.692Z,11.30
2023-05-19T04:07:25.399Z,11.20
2023-05-19T04:22:31.266Z,11.07
2023-05-19T04:37:38.654Z,10.92
2023-05-19T04:52:45.811Z,11.00
2023-05-19T05:07:54.582Z,11.01
2023-05-19T05:23:01.383Z,10.90
2023-05-19T05:38:07.120Z,11.20
2023-05-19T05:53:19.344Z,11.32
2023-05-19T06:08:25.085Z,11.46
2023-05-19T06:23:31.830Z,12.23
2023-05-19T06:38:37.666Z,13.22
2023-05-19T06:53:43.254Z,14.78
2023-05-19T07:08:48.949Z,15.26
2023-05-19T07:23:54.850Z,15.57
2023-05-19T07:39:00.660Z,16.96
2023-05-19T07:54:06.357Z,17.95
2023-05-19T08:09:12.316Z,18.65
2023-05-19T08:24:17.997Z,18.64
2023-05-19T08:39:27.192Z,19.37
2023-05-19T08:54:38.584Z,20.22
2023-05-19T09:09:44.380Z,18.23
2023-05-19T09:24:50.880Z,18.81
2023-05-19T09:39:56.830Z,18.83
2023-05-19T09:55:03.972Z,19.41
2023-05-19T10:10:13.374Z,19.47
2023-05-19T10:25:20.331Z,18.83
2023-05-19T10:40:30.085Z,19.65
2023-05-19T10:55:53.573Z,19.41
2023-05-19T11:11:14.368Z,18.69
2023-05-19T11:26:43.720Z,18.80
2023-05-19T11:41:49.443Z,18.50
2023-05-19T11:56:55.130Z,18.22
2023-05-19T12:12:00.919Z,18.51
2023-05-19T12:27:14.051Z,18.26
2023-05-19T12:42:19.870Z,18.22
2023-05-19T12:57:25.352Z,17.77
2023-05-19T13:12:31.582Z,17.75
2023-05-19T13:27:37.002Z,18.04
2023-05-19T13:42:43.036Z,17.80
2023-05-19T13:57:48.756Z,17.74
2023-05-19T14:13:18.268Z,17.63
2023-05-19T14:28:19.998Z,17.50
2023-05-19T14:43:26.041Z,17.70
2023-05-19T14:58:31.950Z,17.45
2023-05-19T15:13:37.558Z,17.43
2023-05-19T15:28:43.304Z,17.03
2023-05-19T15:43:49.330Z,17.09
2023-05-19T15:58:54.795Z,16.94
2023-05-19T16:14:00.530Z,16.82
2023-05-19T16:29:06.232Z,16.81
2023-05-19T16:44:14.685Z,16.73
2023-05-19T16:59:20.383Z,16.67
2023-05-19T17:14:26.050Z,16.52
2023-05-19T17:29:31.692Z,16.41
2023-05-19T17:44:37.439Z,16.27
2023-05-19T17:59:44.018Z,16.21
2023-05-19T18:14:49.451Z,16.05
2023-05-19T18:29:55.131Z,15.92
2023-05-19T18:45:00.773Z,15.80
2023-05-19T19:00:07.356Z,15.65
2023-05-19T19:15:13.864Z,15.47
2023-05-19T19:30:19.798Z,15.34
2023-05-19T19:45:25.855Z,15.23
2023-05-19T20:00:33.094Z,15.17
2023-05-19T20:15:38.816Z,15.07
2023-05-19T20:30:44.391Z,14.95
2023-05-19T20:45:50.026Z,14.86
2023-05-19T21:00:58.136Z,14.66
2023-05-19T21:16:03.815Z,14.45
2023-05-19T21:31:09.362Z,14.36
2023-05-19T21:46:14.933Z,14.24
2023-05-19T22:01:20.859Z,14.42
2023-05-19T22:16:26.465Z,13.70
2023-05-19T22:31:32.759Z,13.25
2023-05-19T22:46:38.468Z,13.36
2023-05-19T23:01:44.164Z,13.39
2023-05-19T23:16:50.121Z,13.21
2023-05-19T23:31:56.065Z,13.12
2023-05-19T23:47:01.834Z,13.19
